• Join FlightAware (Why Join?)
  • Login
  • US Flag 
12:43PM EDT


 

Airport Tracker/Info


-or-


 

Live Flight TrackerFlight Track Log ✈ JZA8483 ✈ 06-Aug-2013 ✈ CYXE - CYEG

Flight Track Log - Related Links

Times and Time Zones

All times are in EDT time to prevent confusion due to time zone crossing. See the JZA8483 flight status page for this flight to view local times or setup timezone preferences in your user account.

Time Position Orientation Groundspeed Altitude Reporting Facility
EDT Latitude Longitude Course Direction KTS MPH feet Rate Location/Type
11:40AM 52.1667 -106.7500 282° West 30 35 2,000  Level Winnipeg Center
11:41AM 52.1667 -106.8167 270° West 160 184 3,100 960 Climbing Winnipeg Center
11:42AM 52.1667 -106.9000 270° West 190 219 4,000 960 Climbing Winnipeg Center
11:43AM 52.2000 -106.9833 303° West 190 219 5,100 1,080 Climbing Winnipeg Center
11:44AM 52.2167 -107.0667 288° West 190 219 6,200 1,080 Climbing Winnipeg Center
11:45AM 52.2167 -107.1500 270° West 200 230 7,300 1,080 Climbing Winnipeg Center
11:46AM 52.2500 -107.2500 299° West 190 219 8,400 1,020 Climbing Winnipeg Center
11:47AM 52.2884 -107.4068 282° West  Level FlightAware Approximate
11:47AM 52.2500 -107.3333 270° West 190 219 9,400  Level Winnipeg Center
11:48AM 52.2667 -107.4167 288° West 190 219 10,400 960 Climbing Winnipeg Center
11:49AM 52.2667 -107.4667 270° West 190 219 11,400 1,020 Climbing Winnipeg Center
11:50AM 52.3000 -107.5667 299° West 180 207 12,500 960 Climbing Winnipeg Center
11:51AM 52.3167 -107.6500 288° West 180 207 13,400 780 Climbing Winnipeg Center
11:52AM 52.3167 -107.7333 270° West 190 219 14,100 780 Climbing Winnipeg Center
11:53AM 52.3333 -107.8167 288° West 190 219 15,000 900 Climbing Winnipeg Center
11:54AM 52.3500 -107.9000 288° West 190 219 15,900 840 Climbing Winnipeg Center
11:55AM 52.3667 -107.9833 288° West 190 219 16,700 780 Climbing Winnipeg Center
11:56AM 52.3667 -108.0667 270° West 190 219 17,500 720 Climbing Winnipeg Center
11:58AM 52.3833 -108.1833 283° West 190 219 18,800 660 Climbing Edmonton Center
11:59AM 52.4000 -108.2667 288° West 190 219 19,500 600 Climbing Edmonton Center
12:00PM 52.4167 -108.3500 288° West 190 219 20,000 240 Climbing Edmonton Center
12:01PM 52.4333 -108.4333 288° West 210 242 20,000  Level Edmonton Center
12:02PM 52.4500 -108.5333 285° West 230 265 20,000  Level Edmonton Center
12:03PM 52.4833 -108.6500 295° West 240 276 20,000  Level Edmonton Center
12:04PM 52.4833 -108.7667 270° West 250 288 20,000  Level Edmonton Center
12:05PM 52.5000 -108.8833 283° West 250 288 20,000  Level Edmonton Center
12:06PM 52.5167 -109.0000 283° West 250 288 20,000  Level Edmonton Center
12:07PM 52.5333 -109.1000 285° West 250 288 20,000  Level Edmonton Center
12:08PM 52.5667 -109.2167 295° West 250 288 20,000  Level Edmonton Center
12:09PM 52.5667 -109.3333 270° West 250 288 20,000  Level Edmonton Center
12:10PM 52.5833 -109.4500 283° West 250 288 20,000  Level Edmonton Center
12:11PM 52.6167 -109.5667 295° West 250 288 20,000  Level Edmonton Center
12:12PM 52.6333 -109.6667 285° West 250 288 20,000  Level Edmonton Center
12:13PM 52.6333 -109.7833 270° West 250 288 20,000  Level Edmonton Center
12:14PM 52.6500 -109.9000 283° West 250 288 20,000  Level Edmonton Center
12:15PM 52.6833 -110.0167 295° West 250 288 20,000  Level Edmonton Center
12:16PM 52.6833 -110.1333 270° West 250 288 20,000  Level Edmonton Center
12:17PM 52.7000 -110.2333 285° West 250 288 20,000  Level Edmonton Center
12:18PM 52.7333 -110.3500 295° West 260 299 20,000  Level Edmonton Center
12:19PM 52.7500 -110.4667 283° West 260 299 20,000  Level Edmonton Center
12:20PM 52.7500 -110.5833 270° West 260 299 20,000  Level Edmonton Center
12:21PM 52.7667 -110.7000 283° West 260 299 20,000  Level Edmonton Center
12:22PM 52.8000 -110.8167 295° West 260 299 20,000  Level Edmonton Center
12:23PM 52.8000 -110.9333 270° West 260 299 20,000  Level Edmonton Center
12:24PM 52.8167 -111.0333 285° West 260 299 20,000  Level Edmonton Center
12:25PM 52.8333 -111.1833 280° West 260 299 20,000  Level Edmonton Center
12:26PM 52.8500 -111.3000 283° West 260 299 20,000  Level Edmonton Center
12:27PM 52.8667 -111.4167 283° West 260 299 20,000  Level Edmonton Center
12:28PM 52.8667 -111.5333 270° West 260 299 20,000  Level Edmonton Center
12:29PM 52.9000 -111.6500 295° West 260 299 20,000  Level Edmonton Center
12:30PM 52.9167 -111.7500 285° West 260 299 20,000  Level Edmonton Center
12:31PM 52.9167 -111.8667 270° West 260 299 20,000  Level Edmonton Center
12:32PM 52.9500 -112.0167 290° West 260 299 20,000  Level Edmonton Center
12:33PM 52.9500 -112.1333 270° West 260 299 20,000 -660 Level Edmonton Center
12:34PM 52.9667 -112.2500 283° West 270 311 18,700 -1,320 Descending Edmonton Center
12:35PM 52.9833 -112.3833 282° West 290 334 17,400 -1,440 Descending Edmonton Center
12:36PM 53.0000 -112.5000 283° West 290 334 15,900 -1,560 Descending Edmonton Center
12:37PM 53.0167 -112.6500 281° West 290 334 14,300 -1,500 Descending Edmonton Center
12:38PM 53.0333 -112.7667 283° West 290 334 12,900 -1,500 Descending Edmonton Center
12:39PM 53.0500 -112.9167 281° West 280 322 11,300 -1,560 Descending Edmonton Center
12:40PM 53.0833 -113.0000 304° West 260 299 9,800 -1,500 Descending Edmonton Center
12:41PM 53.1333 -113.1000 310° West 260 299 8,400 -1,320 Descending Edmonton Center
12:42PM 53.1833 -113.2000 310° West 250 288 7,200 -1,020 Descending Edmonton Center
12:43PM 53.2333 -113.2500 329° Northwest 250 288 6,400 -600 Descending Edmonton Center
12:44PM 53.2833 -113.3500 310° West 250 288 6,000 -840 Descending Edmonton Center
12:45PM 53.3167 -113.4500 299° West 240 276 4,800 -1,020 Descending Edmonton Center
12:46PM 53.3500 -113.5167 310° West 180 207 4,000 -900 Descending Edmonton Center
12:47PM 53.3333 -113.5667 241° Southwest 140 161 3,000 -900 Descending Edmonton Center
12:48PM 53.3167 -113.5833 211° Southwest 120 138 2,300 -720 Descending Edmonton Center